Time;durP1;ratioP1;P1;durP2;ratioP2;P2;SDS_P1;SDS_P2;PMS_P1;PMS_P2;Temp;Humidity;BMP_temperature;BMP_pressure;BME280_temperature;BME280_humidity;BME280_pressure;Samples;Min_cycle;Max_cycle;Signal;HPM_P1;HPM_P2
2022/07/02 00:06:18;;;;;;;12.70;3.45;;;13.50;99.90;;;;;;6087460;23;20018;-74
2022/07/02 00:29:05;;;;;;;16.30;3.80;;;13.40;99.90;;;;;;6084562;23;20019;-73
2022/07/02 00:44:09;;;;;;;9.18;3.35;;;13.40;99.90;;;;;;6091516;23;20043;-74
2022/07/02 00:48:13;;;;;;;;;;;;;;;;;;;;;
2022/07/02 00:58:35;;;;;;;10.48;3.30;;;13.40;99.90;;;;;;6157296;23;20035;-73
2022/07/02 01:19:22;;;;;;;;;;;13.30;99.90;;;;;;6188304;23;20470;-73
2022/07/02 01:22:22;;;;;;;11.48;3.03;;;13.20;99.90;;;;;;6165002;23;19916;-73
2022/07/02 01:28:15;;;;;;;;;;;;;;;;;;;;;
2022/07/02 01:31:11;;;;;;;11.15;2.85;;;13.20;99.90;;;;;;6183589;23;20092;-72
2022/07/02 01:34:06;;;;;;;9.80;2.90;;;13.20;99.90;;;;;;6127842;23;20066;-73
2022/07/02 01:37:46;;;;;;;9.02;2.67;;;13.20;99.90;;;;;;6091320;23;20014;-73
2022/07/02 01:44:24;;;;;;;11.30;2.88;;;13.10;99.90;;;;;;6099155;23;20101;-73
2022/07/02 01:51:24;;;;;;;9.98;2.72;;;13.10;99.90;;;;;;6124600;23;20399;-73
2022/07/02 01:54:41;;;;;;;7.25;2.50;;;13.10;99.90;;;;;;6100820;23;20446;-74
2022/07/02 02:01:36;;;;;;;;;;;;;;;;;;;;;
2022/07/02 02:13:01;;;;;;;8.27;2.70;;;13.00;99.90;;;;;;6050695;23;20022;-74
2022/07/02 02:15:55;;;;;;;11.27;3.17;;;13.10;99.90;;;;;;6229376;22;20019;-74
2022/07/02 02:19:01;;;;;;;13.27;4.93;;;12.90;99.90;;;;;;6201211;23;20012;-73
2022/07/02 02:22:27;;;;;;;12.85;3.83;;;12.90;99.90;;;;;;6246140;22;20007;-73
2022/07/02 02:29:20;;;;;;;;;;;;;;;;;;;;;
2022/07/02 02:32:39;;;;;;;13.23;3.20;;;12.90;99.90;;;;;;6232708;22;20039;-73
2022/07/02 02:36:05;;;;;;;8.40;2.80;;;13.00;99.90;;;;;;6252515;22;20116;-74
2022/07/02 02:39:24;;;;;;;;;;;;;;;;;;;;;
2022/07/02 02:42:51;;;;;;;12.27;2.83;;;13.00;99.90;;;;;;6261172;22;20087;-74
2022/07/02 02:49:40;;;;;;;12.02;3.30;;;12.70;99.90;;;;;;6238323;22;20049;-73
2022/07/02 02:59:40;;;;;;;10.60;2.90;;;12.60;99.90;;;;;;6242081;22;20015;-73
2022/07/02 03:14:25;;;;;;;15.27;4.47;;;12.60;99.90;;;;;;6186114;23;20020;-73
2022/07/02 03:17:54;;;;;;;10.85;3.80;;;12.40;99.90;;;;;;6155564;23;20091;-73
2022/07/02 03:24:35;;;;;;;;;;;12.30;99.90;;;;;;6186730;23;20020;-73
2022/07/02 03:28:50;;;;;;;;;;;;;;;;;;;;;
2022/07/02 03:38:57;;;;;;;11.73;4.57;;;12.30;99.90;;;;;;6206350;23;20024;-72
2022/07/02 03:42:43;;;;;;;;;;;;;;;;;;;;;
2022/07/02 03:45:18;;;;;;;12.05;4.85;;;12.40;99.90;;;;;;6299598;22;20011;-73
2022/07/02 03:48:13;;;;;;;14.50;4.60;;;12.40;99.90;;;;;;6290229;22;20007;-73
2022/07/02 03:55:28;;;;;;;;;;;;;;;;;;;;;
2022/07/02 04:01:49;;;;;;;;;;;;;;;;;;;;;
2022/07/02 04:08:52;;;;;;;13.20;4.20;;;12.30;99.90;;;;;;6288092;22;20086;-73
2022/07/02 04:12:26;;;;;;;11.32;4.35;;;12.80;99.90;;;;;;6282293;22;20369;-73
2022/07/02 04:15:20;;;;;;;14.32;4.78;;;13.00;99.90;;;;;;6219080;22;20341;-73
2022/07/02 04:18:51;;;;;;;17.00;4.10;;;13.00;99.90;;;;;;6253030;22;20018;-73
2022/07/02 04:22:23;;;;;;;8.85;3.83;;;13.20;99.90;;;;;;6173379;23;20076;-72
2022/07/02 04:32:43;;;;;;;;;;;;;;;;;;;;;
2022/07/02 04:39:25;;;;;;;7.88;3.20;;;14.00;99.90;;;;;;5942987;24;20017;-73
2022/07/02 04:46:41;;;;;;;12.88;3.88;;;14.30;99.90;;;;;;5830839;24;20241;-73
2022/07/02 04:50:02;;;;;;;11.00;3.95;;;14.60;99.90;;;;;;5738509;24;20041;-73
2022/07/02 07:20:49;;;;;;;7.68;1.60;;;20.40;94.70;;;;;;6076625;23;19995;-76
2022/07/02 07:24:13;;;;;;;7.40;1.73;;;20.50;94.80;;;;;;6069182;23;20018;-75
2022/07/02 07:39:08;;;;;;;;;;;;;;;;;;;;;
2022/07/02 07:49:37;;;;;;;;;;;;;;;;;;;;;
2022/07/02 07:56:32;;;;;;;5.63;1.73;;;22.20;91.20;;;;;;6066024;23;20009;-71
2022/07/02 07:58:58;;;;;;;10.95;1.55;;;22.40;91.10;;;;;;6041906;23;20019;-71
2022/07/02 08:04:56;;;;;;;11.60;1.63;;;22.50;91.60;;;;;;6123692;23;20069;-70
2022/07/02 08:07:21;;;;;;;9.35;1.27;;;22.50;90.40;;;;;;6099204;23;20013;-71
2022/07/02 08:09:52;;;;;;;8.98;1.70;;;22.50;90.40;;;;;;6123592;23;20115;-71
2022/07/02 08:12:22;;;;;;;8.27;1.40;;;22.60;90.30;;;;;;6075692;23;20014;-71
2022/07/02 08:14:48;;;;;;;13.60;1.60;;;22.70;89.20;;;;;;6099446;23;20431;-73
2022/07/02 08:17:14;;;;;;;;;;;22.60;88.00;;;;;;6158523;23;20012;-71
2022/07/02 08:19:43;;;;;;;7.47;1.30;;;22.40;88.60;;;;;;6189252;23;19966;-71
2022/07/02 08:22:08;;;;;;;6.53;1.23;;;22.30;89.00;;;;;;6164834;23;20021;-72
2022/07/02 08:25:09;;;;;;;8.27;1.30;;;22.50;90.10;;;;;;6188974;23;20079;-71
2022/07/02 08:27:55;;;;;;;4.80;1.27;;;22.60;89.00;;;;;;6149169;23;20018;-72
2022/07/02 08:30:21;;;;;;;7.35;1.25;;;22.80;89.90;;;;;;6080203;23;20013;-70
2022/07/02 08:32:47;;;;;;;6.95;1.67;;;22.90;89.40;;;;;;6128769;23;20059;-71
2022/07/02 08:35:13;;;;;;;;;;;22.90;88.20;;;;;;6104728;23;20113;-73
2022/07/02 08:37:39;;;;;;;6.68;1.38;;;22.90;87.70;;;;;;6128731;23;19912;-71
2022/07/02 08:40:05;;;;;;;4.43;1.00;;;22.90;86.20;;;;;;6128229;23;20081;-72
2022/07/02 08:42:32;;;;;;;4.47;1.30;;;23.00;87.70;;;;;;6104026;23;20125;-72
2022/07/02 08:45:03;;;;;;;8.43;1.60;;;23.00;86.60;;;;;;6128557;23;20116;-73
2022/07/02 08:47:29;;;;;;;4.97;1.23;;;22.90;86.10;;;;;;6128368;23;20021;-73
2022/07/02 08:49:57;;;;;;;6.97;1.40;;;22.80;87.20;;;;;;6128164;23;20020;-73
2022/07/02 08:52:24;;;;;;;8.57;1.30;;;22.80;86.70;;;;;;6129851;23;20336;-73
2022/07/02 08:54:50;;;;;;;7.70;1.80;;;22.40;86.40;;;;;;6130929;23;20014;-73
2022/07/02 08:57:16;;;;;;;4.65;1.20;;;22.40;87.70;;;;;;6104351;23;20055;-73
2022/07/02 08:59:43;;;;;;;4.55;1.40;;;22.50;88.20;;;;;;6161800;23;20454;-72
2022/07/02 09:02:13;;;;;;;6.15;1.25;;;22.60;87.80;;;;;;6189356;23;20019;-72
2022/07/02 09:04:49;;;;;;;6.50;1.20;;;22.80;87.80;;;;;;6188350;23;20021;-71
2022/07/02 09:07:16;;;;;;;9.35;1.40;;;22.90;85.20;;;;;;6215610;23;20048;-72
2022/07/02 09:09:42;;;;;;;7.85;1.38;;;23.00;85.40;;;;;;6188620;23;20019;-72
2022/07/02 09:12:29;;;;;;;6.00;1.15;;;23.00;85.00;;;;;;6189500;23;20030;-75
2022/07/02 09:15:14;;;;;;;7.13;1.27;;;22.90;84.60;;;;;;6163434;23;20021;-74
2022/07/02 09:17:46;;;;;;;5.28;1.00;;;22.90;86.30;;;;;;6163766;23;20013;-74
2022/07/02 09:20:23;;;;;;;7.13;1.30;;;22.60;84.30;;;;;;6163669;23;20020;-74
2022/07/02 09:22:53;;;;;;;6.68;1.17;;;22.40;83.80;;;;;;6188206;23;20071;-72
2022/07/02 09:25:31;;;;;;;5.90;0.68;;;22.40;84.80;;;;;;6191536;23;20357;-75
2022/07/02 09:28:21;;;;;;;;;;;22.60;85.20;;;;;;6216142;23;20008;-76
2022/07/02 09:31:11;;;;;;;7.13;1.27;;;22.80;83.70;;;;;;6163440;23;19983;-75
2022/07/02 09:53:06;;;;;;;5.18;1.30;;;22.90;80.10;;;;;;6048333;23;20022;-79
2022/07/02 10:06:59;;;;;;;4.70;0.93;;;22.90;79.10;;;;;;6209836;23;20092;-82
2022/07/02 10:10:18;;;;;;;5.35;1.05;;;23.00;78.70;;;;;;6161452;23;20012;-84
2022/07/02 10:13:02;;;;;;;3.58;0.93;;;23.30;77.50;;;;;;6164042;23;20048;-74
2022/07/02 10:16:02;;;;;;;4.95;1.30;;;23.60;78.50;;;;;;6193280;23;20078;-75
2022/07/02 10:18:32;;;;;;;5.18;0.82;;;23.80;75.20;;;;;;6227272;23;20005;-72
2022/07/02 10:20:59;;;;;;;5.93;0.98;;;24.00;77.40;;;;;;6169243;23;20009;-73
2022/07/02 10:23:26;;;;;;;3.55;0.80;;;24.20;76.50;;;;;;6190327;23;20009;-74
2022/07/02 10:25:53;;;;;;;4.70;0.82;;;24.00;76.00;;;;;;6165346;23;20012;-70
2022/07/02 10:31:27;;;;;;;3.67;0.90;;;23.80;75.60;;;;;;6095753;23;20046;-78
2022/07/02 10:34:38;;;;;;;4.55;0.80;;;24.10;75.70;;;;;;6186677;23;20423;-77
2022/07/02 10:37:04;;;;;;;2.40;0.90;;;24.60;75.40;;;;;;6163744;23;20012;-78
2022/07/02 10:39:42;;;;;;;4.63;1.13;;;24.70;74.00;;;;;;6164298;23;20095;-79
2022/07/02 10:42:08;;;;;;;6.07;0.85;;;24.40;72.50;;;;;;6190554;23;20048;-78
2022/07/02 10:44:41;;;;;;;5.40;1.20;;;24.20;73.80;;;;;;6165280;23;20016;-79
2022/07/02 10:47:24;;;;;;;5.53;1.17;;;23.70;75.00;;;;;;6189918;23;20486;-78
2022/07/02 10:50:01;;;;;;;5.97;0.93;;;23.20;77.10;;;;;;6190420;23;20443;-76
2022/07/02 10:52:48;;;;;;;7.60;0.98;;;23.30;78.90;;;;;;6141147;23;20025;-78
2022/07/02 10:55:24;;;;;;;10.50;1.27;;;23.70;77.80;;;;;;6165325;23;20009;-79
2022/07/02 10:58:02;;;;;;;5.88;1.02;;;23.90;78.20;;;;;;6189719;23;20016;-81
2022/07/02 11:00:36;;;;;;;7.07;1.10;;;24.30;77.80;;;;;;6165044;23;20490;-79
2022/07/02 11:03:14;;;;;;;4.60;1.08;;;24.50;78.00;;;;;;6190499;23;20296;-79
2022/07/02 11:05:59;;;;;;;4.38;1.20;;;24.70;75.20;;;;;;6189782;23;20009;-77
2022/07/02 11:08:40;;;;;;;7.65;1.27;;;24.80;74.50;;;;;;6189866;23;20020;-77
2022/07/02 11:11:07;;;;;;;6.57;1.25;;;24.80;74.30;;;;;;6165464;23;20023;-78
2022/07/02 11:13:38;;;;;;;4.32;1.00;;;24.90;71.20;;;;;;6190185;23;20100;-77
2022/07/02 11:16:26;;;;;;;5.38;0.80;;;25.20;72.40;;;;;;6165256;23;20020;-78
2022/07/02 11:18:56;;;;;;;4.22;0.80;;;25.30;72.50;;;;;;6164906;23;20435;-76
2022/07/02 11:21:23;;;;;;;4.35;0.80;;;25.20;70.60;;;;;;6165583;23;20330;-77
2022/07/02 11:23:50;;;;;;;4.22;0.95;;;25.10;72.30;;;;;;6165364;23;20416;-77
2022/07/02 11:26:26;;;;;;;4.20;1.10;;;24.90;71.60;;;;;;6190039;23;20012;-77
2022/07/02 11:28:54;;;;;;;5.38;1.23;;;24.90;72.20;;;;;;6216212;23;20436;-77
2022/07/02 11:31:23;;;;;;;5.30;0.93;;;25.10;73.10;;;;;;6165296;23;20009;-78
2022/07/02 11:33:54;;;;;;;3.83;0.80;;;24.90;72.60;;;;;;6165025;23;20151;-78
2022/07/02 11:36:21;;;;;;;3.65;0.98;;;24.90;71.90;;;;;;6168467;23;20010;-77
2022/07/02 11:38:49;;;;;;;2.33;0.77;;;24.80;71.60;;;;;;6176269;23;20009;-76
2022/07/02 11:41:22;;;;;;;3.42;0.82;;;24.50;71.40;;;;;;6194385;23;20079;-77
2022/07/02 11:43:50;;;;;;;4.20;0.70;;;24.20;71.00;;;;;;6189600;23;20009;-78
2022/07/02 11:46:21;;;;;;;3.90;0.85;;;24.00;72.50;;;;;;6164891;23;20019;-77
2022/07/02 11:48:51;;;;;;;3.33;0.70;;;24.10;72.50;;;;;;6189255;23;20066;-77
2022/07/02 11:51:21;;;;;;;7.32;1.05;;;24.00;74.40;;;;;;6165054;23;20096;-77
2022/07/02 11:54:07;;;;;;;6.63;1.00;;;24.10;74.30;;;;;;6165043;23;20017;-78
2022/07/02 11:56:38;;;;;;;4.70;1.07;;;24.20;75.80;;;;;;6216479;23;20323;-77
2022/07/02 11:59:06;;;;;;;4.88;0.82;;;24.20;76.20;;;;;;6164331;23;20390;-80
2022/07/02 12:01:34;;;;;;;3.55;0.70;;;24.20;74.30;;;;;;6164591;23;20079;-77
2022/07/02 12:04:04;;;;;;;8.13;1.63;;;24.00;74.60;;;;;;6189173;23;20009;-78
2022/07/02 12:06:33;;;;;;;3.42;0.73;;;23.90;71.20;;;;;;6164929;23;20104;-76
2022/07/02 12:09:07;;;;;;;3.90;0.90;;;23.80;73.00;;;;;;6165285;23;20370;-78
2022/07/02 12:11:35;;;;;;;2.83;0.68;;;23.70;73.50;;;;;;6189678;23;20012;-78
2022/07/02 12:14:03;;;;;;;4.53;0.80;;;23.90;72.50;;;;;;6189823;23;20035;-77
2022/07/02 12:16:32;;;;;;;4.15;0.75;;;23.80;73.70;;;;;;6164311;23;20086;-79
2022/07/02 12:19:09;;;;;;;6.03;1.10;;;23.70;73.00;;;;;;6164268;23;20008;-77
2022/07/02 12:21:45;;;;;;;3.45;0.68;;;23.80;72.70;;;;;;6188606;23;20005;-78
2022/07/02 12:24:22;;;;;;;6.83;0.70;;;24.00;73.70;;;;;;6164866;23;20457;-79
2022/07/02 12:26:56;;;;;;;6.03;1.00;;;24.30;73.00;;;;;;6189604;23;20250;-78
2022/07/02 12:32:12;;;;;;;;;;;24.50;72.00;;;;;;6189593;23;20020;-79
2022/07/02 12:34:53;;;;;;;5.43;0.80;;;24.50;69.90;;;;;;6164661;23;19912;-78
2022/07/02 12:37:37;;;;;;;2.88;0.70;;;24.30;71.90;;;;;;6164697;23;20012;-77
2022/07/02 12:40:08;;;;;;;6.22;0.93;;;24.30;70.70;;;;;;6164256;23;20091;-77
2022/07/02 12:42:48;;;;;;;3.95;0.90;;;24.30;71.10;;;;;;6189236;23;20419;-78
2022/07/02 12:45:26;;;;;;;2.85;0.55;;;24.20;69.70;;;;;;6164851;23;20099;-77
2022/07/02 12:48:01;;;;;;;3.50;0.80;;;24.20;69.20;;;;;;6189562;23;20013;-78
2022/07/02 12:50:29;;;;;;;2.83;0.70;;;24.20;69.30;;;;;;6164223;23;20083;-77
2022/07/02 12:52:56;;;;;;;2.95;0.65;;;24.10;69.70;;;;;;6164085;23;20319;-76
2022/07/02 12:55:27;;;;;;;3.20;0.80;;;24.00;69.00;;;;;;6189475;23;20016;-77
2022/07/02 12:57:55;;;;;;;7.07;1.23;;;24.00;68.30;;;;;;6189564;23;20091;-78
2022/07/02 13:00:22;;;;;;;2.92;0.80;;;24.00;68.80;;;;;;6164494;23;20017;-79
2022/07/02 13:03:07;;;;;;;2.85;0.57;;;24.40;68.50;;;;;;6188801;23;20083;-79
2022/07/02 13:05:36;;;;;;;4.20;0.88;;;24.30;68.90;;;;;;6164189;23;20446;-77
2022/07/02 13:08:02;;;;;;;3.88;0.88;;;24.40;68.50;;;;;;6189453;23;20020;-78
2022/07/02 13:10:28;;;;;;;3.60;0.70;;;24.40;67.90;;;;;;6189211;23;20122;-78
2022/07/02 13:12:54;;;;;;;3.92;0.80;;;24.30;67.30;;;;;;6164284;23;20387;-76
2022/07/02 13:15:20;;;;;;;2.50;0.60;;;24.10;69.00;;;;;;6189154;23;20048;-78
2022/07/02 13:17:45;;;;;;;3.20;0.70;;;24.00;69.10;;;;;;6189181;23;20008;-76
2022/07/02 13:20:11;;;;;;;2.53;0.60;;;24.10;69.00;;;;;;6163951;23;20083;-80
2022/07/02 13:22:41;;;;;;;1.83;0.63;;;24.00;69.00;;;;;;6171289;23;20331;-77
2022/07/02 13:25:08;;;;;;;3.33;0.60;;;24.00;69.20;;;;;;6196633;23;20087;-78
2022/07/02 13:27:34;;;;;;;2.10;0.60;;;23.90;69.00;;;;;;6167003;23;20099;-77
2022/07/02 13:30:00;;;;;;;4.32;0.80;;;23.80;69.00;;;;;;6191337;23;20423;-76
2022/07/02 13:32:27;;;;;;;3.00;0.65;;;24.10;70.30;;;;;;6165929;23;20047;-76
2022/07/02 13:34:53;;;;;;;1.77;0.77;;;24.20;69.00;;;;;;6191353;23;20104;-78
2022/07/02 13:37:19;;;;;;;2.25;0.65;;;24.50;68.80;;;;;;6191323;23;20008;-77
2022/07/02 13:39:46;;;;;;;4.43;0.82;;;24.70;69.30;;;;;;6178351;23;20359;-78
2022/07/02 13:42:12;;;;;;;4.00;1.17;;;24.70;69.10;;;;;;6165867;23;20434;-79
2022/07/02 13:44:38;;;;;;;3.45;0.77;;;24.80;68.50;;;;;;6166197;23;20009;-77
2022/07/02 13:47:06;;;;;;;3.63;0.85;;;24.90;67.20;;;;;;6166379;23;20017;-78
2022/07/02 13:49:32;;;;;;;5.30;0.73;;;24.80;67.10;;;;;;6191006;23;20072;-76
2022/07/02 13:51:58;;;;;;;2.60;0.65;;;24.60;67.00;;;;;;6190361;23;20005;-76
2022/07/02 13:54:25;;;;;;;2.50;0.60;;;24.60;67.30;;;;;;6191220;23;20020;-76
2022/07/02 13:56:51;;;;;;;3.10;0.60;;;24.70;68.00;;;;;;6165886;23;20048;-76
2022/07/02 13:59:17;;;;;;;4.10;0.63;;;24.70;67.70;;;;;;6217756;23;20023;-78
2022/07/02 14:01:43;;;;;;;1.67;0.50;;;24.70;65.90;;;;;;6190642;23;20014;-78
2022/07/02 14:04:09;;;;;;;5.63;0.70;;;24.80;65.90;;;;;;6165959;23;20095;-77
2022/07/02 14:06:34;;;;;;;2.45;0.70;;;24.90;67.50;;;;;;6138917;23;20052;-78
2022/07/02 14:09:01;;;;;;;2.22;0.60;;;24.80;67.40;;;;;;6165820;23;20395;-78
2022/07/02 14:11:27;;;;;;;4.32;0.60;;;24.90;66.20;;;;;;6165446;23;20058;-77
2022/07/02 14:13:53;;;;;;;6.07;0.80;;;24.90;66.80;;;;;;6190954;23;20342;-78
2022/07/02 14:16:19;;;;;;;2.63;0.60;;;24.90;66.50;;;;;;6190916;23;20319;-78
2022/07/02 14:18:46;;;;;;;2.90;0.60;;;24.90;66.20;;;;;;6190873;23;20013;-78
2022/07/02 14:21:12;;;;;;;3.35;0.50;;;25.00;66.80;;;;;;6190139;23;20012;-78
2022/07/02 14:23:40;;;;;;;2.45;0.65;;;25.20;67.30;;;;;;6165799;23;20009;-76
2022/07/02 14:26:06;;;;;;;6.05;0.65;;;25.30;66.10;;;;;;6141143;23;20008;-78
2022/07/02 14:28:32;;;;;;;2.92;0.63;;;25.20;66.70;;;;;;6190385;23;20379;-77
2022/07/02 14:30:58;;;;;;;2.53;0.70;;;25.60;67.30;;;;;;6165210;23;20021;-81
2022/07/02 14:33:26;;;;;;;1.75;0.50;;;25.80;64.90;;;;;;6165973;23;20389;-80
2022/07/02 14:35:54;;;;;;;1.48;0.45;;;25.60;65.10;;;;;;6190477;23;20016;-77
2022/07/02 14:38:19;;;;;;;5.20;0.60;;;25.60;65.50;;;;;;6166037;23;20099;-78
2022/07/02 14:40:46;;;;;;;2.88;0.60;;;25.40;65.90;;;;;;6165142;23;20048;-79
2022/07/02 14:43:12;;;;;;;7.80;4.70;;;25.30;66.60;;;;;;6170019;23;20040;-77
2022/07/02 14:45:38;;;;;;;3.13;1.20;;;25.20;66.60;;;;;;6173812;23;20013;-77
2022/07/02 14:48:03;;;;;;;5.53;3.53;;;25.40;66.80;;;;;;6192366;23;20101;-79
2022/07/02 14:50:30;;;;;;;10.07;5.50;;;25.70;66.40;;;;;;6165456;23;20059;-78
2022/07/02 14:52:59;;;;;;;10.40;5.50;;;25.70;65.70;;;;;;6166220;23;20013;-79
2022/07/02 14:55:24;;;;;;;7.25;4.13;;;25.90;64.60;;;;;;6165227;23;20130;-78
2022/07/02 14:57:52;;;;;;;1.73;0.77;;;26.20;65.60;;;;;;6165715;23;20017;-79
2022/07/02 15:00:18;;;;;;;3.67;0.60;;;26.60;64.90;;;;;;6115972;23;20012;-79
2022/07/02 15:02:44;;;;;;;3.83;0.95;;;26.90;62.50;;;;;;6165542;23;20375;-79
2022/07/02 15:05:12;;;;;;;2.92;0.80;;;27.20;63.20;;;;;;6164880;23;20427;-78
2022/07/02 15:07:39;;;;;;;7.40;0.80;;;27.50;62.30;;;;;;6165486;23;20028;-79
2022/07/02 15:10:07;;;;;;;2.90;0.75;;;28.10;62.10;;;;;;6164929;23;20017;-79
2022/07/02 15:12:33;;;;;;;2.97;0.90;;;28.40;59.60;;;;;;6164783;23;20080;-79
2022/07/02 15:17:43;;;;;;;2.33;0.50;;;28.70;59.70;;;;;;6190058;23;20074;-78
2022/07/02 15:20:11;;;;;;;5.45;1.10;;;29.10;57.70;;;;;;6165145;23;20435;-79
2022/07/02 15:22:47;;;;;;;3.35;1.10;;;28.70;56.90;;;;;;6164769;23;20024;-79
2022/07/02 15:25:16;;;;;;;;;;;28.70;56.90;;;;;;6190423;23;20055;-78
2022/07/02 15:27:43;;;;;;;6.47;2.28;;;28.00;56.30;;;;;;6190056;23;19912;-77
2022/07/02 15:30:10;;;;;;;5.22;1.58;;;27.50;58.70;;;;;;6164668;23;20327;-78
2022/07/02 15:32:35;;;;;;;8.52;3.78;;;27.20;58.70;;;;;;6164695;23;20019;-78
2022/07/02 15:35:04;;;;;;;5.72;1.30;;;27.10;59.60;;;;;;6189774;23;20013;-79
2022/07/02 15:37:38;;;;;;;3.10;0.90;;;27.10;60.30;;;;;;6164850;23;20019;-78
2022/07/02 15:40:05;;;;;;;3.92;0.73;;;27.20;60.20;;;;;;6164901;23;20016;-79
2022/07/02 15:42:32;;;;;;;3.22;1.00;;;27.10;60.40;;;;;;6189730;23;20445;-78
2022/07/02 15:44:58;;;;;;;4.10;0.70;;;27.10;59.20;;;;;;6189320;23;20099;-78
2022/07/02 15:47:24;;;;;;;3.88;1.00;;;26.90;59.20;;;;;;6164515;23;20095;-77
2022/07/02 15:49:50;;;;;;;2.38;0.63;;;27.10;60.30;;;;;;6189248;23;20458;-77
2022/07/02 15:52:24;;;;;;;3.83;0.88;;;27.40;59.80;;;;;;6189210;23;20048;-77
2022/07/02 15:55:11;;;;;;;2.78;1.00;;;28.00;58.50;;;;;;6189784;23;20056;-78
2022/07/02 15:57:49;;;;;;;3.63;0.95;;;28.70;55.50;;;;;;6189766;23;20059;-79
2022/07/02 16:00:16;;;;;;;3.78;0.90;;;28.60;55.60;;;;;;6189415;23;20475;-77
2022/07/02 16:02:43;;;;;;;3.38;0.70;;;27.90;57.30;;;;;;6167350;23;20017;-79
2022/07/02 16:05:09;;;;;;;2.50;0.55;;;27.70;57.50;;;;;;6194671;23;20013;-77
2022/07/02 16:07:45;;;;;;;4.30;1.27;;;27.60;57.20;;;;;;6169209;23;20055;-78
2022/07/02 16:10:11;;;;;;;4.88;0.75;;;27.40;58.60;;;;;;6196120;23;20074;-78
2022/07/02 16:12:37;;;;;;;5.57;0.80;;;27.20;59.10;;;;;;6195901;23;20013;-77
2022/07/02 16:15:04;;;;;;;6.13;0.70;;;26.80;59.20;;;;;;6189512;23;20449;-76
2022/07/02 16:17:32;;;;;;;3.92;0.90;;;26.50;59.60;;;;;;6164733;23;20012;-78
2022/07/02 16:19:59;;;;;;;3.72;0.80;;;26.40;60.90;;;;;;6189021;23;20024;-77
2022/07/02 16:22:26;;;;;;;2.67;0.55;;;27.00;61.20;;;;;;6164398;23;20023;-78
2022/07/02 16:24:52;;;;;;;2.85;0.60;;;27.80;60.20;;;;;;6164554;23;20067;-80
2022/07/02 16:27:18;;;;;;;4.68;0.70;;;28.40;58.30;;;;;;6189542;23;20048;-79
2022/07/02 16:29:44;;;;;;;2.65;0.70;;;29.00;57.00;;;;;;6164467;23;20080;-77
2022/07/02 16:32:15;;;;;;;3.08;0.57;;;29.40;56.00;;;;;;6188687;23;20105;-79
2022/07/02 16:34:40;;;;;;;4.45;0.80;;;29.50;54.40;;;;;;6164585;23;20024;-79
2022/07/02 16:37:30;;;;;;;3.15;0.63;;;29.60;53.70;;;;;;6164722;23;20012;-79
2022/07/02 16:40:07;;;;;;;2.42;0.73;;;29.30;53.10;;;;;;6188817;23;20131;-79
2022/07/02 16:42:37;;;;;;;3.53;0.60;;;29.30;52.80;;;;;;6189261;23;20016;-78
2022/07/02 16:45:05;;;;;;;4.72;0.60;;;29.40;54.50;;;;;;6164633;23;20449;-78
2022/07/02 16:47:41;;;;;;;3.53;0.70;;;29.40;54.30;;;;;;6164609;23;20048;-79
2022/07/02 16:50:13;;;;;;;2.30;0.50;;;29.50;52.90;;;;;;6189134;23;20008;-78
2022/07/02 16:52:41;;;;;;;3.78;0.70;;;29.00;53.60;;;;;;6215562;23;20035;-78
2022/07/02 16:55:08;;;;;;;35.92;28.63;;;28.70;54.30;;;;;;6188886;23;20383;-79
2022/07/02 16:57:34;;;;;;;4.53;1.98;;;28.50;54.40;;;;;;6189171;23;20017;-78
2022/07/02 17:00:08;;;;;;;40.45;26.42;;;28.40;53.90;;;;;;6188886;23;20012;-78
2022/07/02 17:02:34;;;;;;;4.50;2.08;;;27.80;54.20;;;;;;6188773;23;20023;-78
2022/07/02 17:05:04;;;;;;;4.13;0.95;;;26.80;56.70;;;;;;6163834;23;20020;-79
2022/07/02 17:07:33;;;;;;;18.60;12.27;;;26.40;56.60;;;;;;6188722;23;20017;-79
2022/07/02 17:09:59;;;;;;;6.35;2.72;;;26.10;56.60;;;;;;6139718;23;20012;-78
2022/07/02 17:12:25;;;;;;;4.50;1.10;;;25.70;58.10;;;;;;6163575;23;20008;-78
2022/07/02 17:14:50;;;;;;;3.85;1.30;;;25.40;60.00;;;;;;6188938;23;20016;-79
2022/07/02 17:17:16;;;;;;;3.47;0.95;;;24.80;60.90;;;;;;6164162;23;20009;-78
2022/07/02 17:19:42;;;;;;;3.72;0.82;;;24.70;61.60;;;;;;6163961;23;20094;-78
2022/07/02 17:22:08;;;;;;;3.63;1.10;;;24.60;60.60;;;;;;6188619;23;20076;-79
2022/07/02 17:24:33;;;;;;;4.82;1.20;;;24.10;61.40;;;;;;6188615;23;20012;-78
2022/07/02 17:27:00;;;;;;;4.32;0.80;;;23.90;61.70;;;;;;6168658;23;20363;-77
2022/07/02 17:29:29;;;;;;;3.30;0.57;;;23.50;63.00;;;;;;6172736;23;20100;-77
2022/07/02 17:31:57;;;;;;;4.75;0.88;;;23.30;63.60;;;;;;6165505;23;20015;-76
2022/07/02 17:34:23;;;;;;;3.80;0.93;;;23.20;63.60;;;;;;6188928;23;20076;-76
2022/07/02 17:36:49;;;;;;;2.53;0.70;;;22.90;64.20;;;;;;6163890;23;20423;-78
2022/07/02 17:39:15;;;;;;;6.22;0.85;;;22.80;64.90;;;;;;6189364;23;20020;-78
2022/07/02 17:41:41;;;;;;;4.38;0.82;;;22.90;66.10;;;;;;6189112;23;20108;-79
2022/07/02 17:44:07;;;;;;;3.65;0.85;;;23.00;66.10;;;;;;6164423;23;20423;-78
2022/07/02 17:46:33;;;;;;;4.90;0.77;;;23.10;66.80;;;;;;6164222;23;20099;-77
2022/07/02 17:48:59;;;;;;;3.00;0.50;;;23.10;66.20;;;;;;6189165;23;20056;-77
2022/07/02 17:51:26;;;;;;;5.80;0.80;;;23.00;66.10;;;;;;6188905;23;20095;-78
2022/07/02 17:53:51;;;;;;;2.92;0.70;;;23.10;66.50;;;;;;6189757;23;20016;-78
2022/07/02 17:56:17;;;;;;;2.97;0.60;;;23.10;66.60;;;;;;6165641;23;20009;-79
2022/07/02 17:58:43;;;;;;;2.80;0.60;;;23.10;66.80;;;;;;6189642;23;20012;-79
2022/07/02 18:01:09;;;;;;;7.40;0.65;;;23.00;67.70;;;;;;6166392;23;20012;-76
2022/07/02 18:03:50;;;;;;;4.38;0.75;;;23.00;68.30;;;;;;6164222;23;20304;-83
2022/07/02 18:10:41;;;;;;;5.35;0.73;;;22.90;70.20;;;;;;6214983;23;20003;-82
2022/07/02 18:16:43;;;;;;;4.20;0.88;;;22.70;72.50;;;;;;6149266;23;20020;-79
2022/07/02 18:19:14;;;;;;;2.67;0.55;;;22.60;71.70;;;;;;6141127;23;20009;-81
2022/07/02 18:21:57;;;;;;;3.08;0.60;;;22.50;72.40;;;;;;6168205;23;20095;-78
2022/07/02 18:24:33;;;;;;;5.65;1.00;;;22.50;70.60;;;;;;6141841;23;20008;-78
2022/07/02 18:27:20;;;;;;;2.77;0.83;;;22.40;72.00;;;;;;6165117;23;20431;-78
2022/07/02 18:30:00;;;;;;;3.65;0.93;;;22.30;74.80;;;;;;6167608;23;20235;-79
2022/07/02 18:32:34;;;;;;;4.25;1.00;;;22.20;71.20;;;;;;6157316;23;20040;-82
2022/07/02 18:35:04;;;;;;;3.08;0.85;;;22.10;70.20;;;;;;6144208;23;20048;-79
2022/07/02 18:37:29;;;;;;;4.95;0.98;;;22.10;71.00;;;;;;6166541;23;20435;-78
2022/07/02 18:39:56;;;;;;;;;;;22.00;72.40;;;;;;6190324;23;20051;-80
2022/07/02 18:42:50;;;;;;;4.50;1.50;;;21.80;74.40;;;;;;6165877;23;19915;-78
2022/07/02 18:45:16;;;;;;;5.55;0.98;;;21.80;76.20;;;;;;6188867;23;20012;-69
2022/07/02 18:47:42;;;;;;;5.45;1.10;;;21.60;74.70;;;;;;6163540;23;20016;-69
2022/07/02 18:50:08;;;;;;;;;;;21.60;75.90;;;;;;6189786;23;20004;-69
2022/07/02 18:52:34;;;;;;;6.65;1.30;;;21.60;78.60;;;;;;6218539;23;19935;-69
2022/07/02 18:55:04;;;;;;;4.35;1.08;;;21.60;76.60;;;;;;6189462;23;20427;-69
2022/07/02 19:16:46;;;;;;;9.45;1.20;;;21.20;82.70;;;;;;5873899;24;20038;-72
2022/07/02 20:30:16;;;;;;;4.22;1.63;;;19.40;92.00;;;;;;6192576;22;20016;-72
2022/07/02 20:38:01;;;;;;;6.40;1.95;;;19.30;92.80;;;;;;6123313;23;20056;-74
2022/07/02 20:48:17;;;;;;;3.65;1.40;;;19.00;93.70;;;;;;6008222;23;20395;-76
2022/07/02 20:51:20;;;;;;;8.65;1.70;;;19.00;92.90;;;;;;5984223;23;20471;-80
2022/07/02 20:54:13;;;;;;;5.75;1.67;;;18.90;93.50;;;;;;6023649;23;20021;-73
2022/07/02 20:56:42;;;;;;;3.38;1.67;;;18.80;93.10;;;;;;6164778;23;20376;-71
2022/07/02 20:59:11;;;;;;;7.93;1.88;;;18.80;93.20;;;;;;6192331;23;20489;-70
2022/07/02 21:01:37;;;;;;;5.40;1.50;;;18.70;93.30;;;;;;6188692;23;20431;-70
2022/07/02 21:04:03;;;;;;;4.80;1.42;;;18.60;93.50;;;;;;6215501;23;20009;-70
2022/07/02 21:06:29;;;;;;;3.25;1.20;;;18.60;93.70;;;;;;6163455;23;20011;-69
2022/07/02 21:08:55;;;;;;;3.30;1.23;;;18.50;93.80;;;;;;6188008;23;20013;-68
2022/07/02 21:11:21;;;;;;;3.25;1.30;;;18.40;94.10;;;;;;6188204;23;20012;-68
2022/07/02 21:18:01;;;;;;;4.63;1.65;;;18.30;95.60;;;;;;6214609;23;20303;-70
2022/07/02 21:20:31;;;;;;;5.00;1.80;;;18.30;95.40;;;;;;6040867;23;20081;-69
2022/07/02 21:22:56;;;;;;;4.50;1.58;;;18.20;94.90;;;;;;6169593;23;20009;-68
2022/07/02 21:25:22;;;;;;;5.95;1.90;;;18.20;95.20;;;;;;6214545;23;20019;-70
2022/07/02 21:27:48;;;;;;;3.92;1.70;;;18.10;95.50;;;;;;6163190;23;20485;-70
2022/07/02 21:30:18;;;;;;;7.43;2.33;;;18.10;95.50;;;;;;6186920;23;20024;-71
2022/07/02 21:32:47;;;;;;;5.05;2.10;;;18.10;95.80;;;;;;6162794;23;20119;-71
2022/07/02 21:35:13;;;;;;;6.63;1.80;;;18.10;95.80;;;;;;6187751;23;20018;-70
2022/07/02 21:37:39;;;;;;;3.55;1.73;;;18.00;95.70;;;;;;6139214;23;20017;-69
2022/07/02 21:43:49;;;;;;;2.42;1.55;;;18.00;96.40;;;;;;6209646;23;20300;-70
2022/07/02 21:49:59;;;;;;;6.20;2.10;;;17.90;97.00;;;;;;6215571;23;20007;-71
2022/07/02 21:56:25;;;;;;;6.95;2.28;;;17.90;97.10;;;;;;6070525;23;20326;-72
2022/07/02 22:02:47;;;;;;;4.95;2.40;;;17.80;97.30;;;;;;6154402;23;20005;-69
2022/07/02 22:05:12;;;;;;;4.95;2.38;;;17.70;96.80;;;;;;6080945;23;20332;-68